Time;durP1;ratioP1;P1;durP2;ratioP2;P2;SDS_P1;SDS_P2;PMS_P1;PMS_P2;Temp;Humidity;BMP_temperature;BMP_pressure;BME280_temperature;BME280_humidity;BME280_pressure;Samples;Min_cycle;Max_cycle;Signal;HPM_P1;HPM_P2
2021/12/15 00:02:26;;;;;;;8.20;7.47;;;17.70;60.30;;;;;;5051522;28;20182;-58
2021/12/15 00:04:52;;;;;;;8.30;7.50;;;17.70;60.30;;;;;;5050940;28;20186;-58
2021/12/15 00:07:22;;;;;;;8.55;7.75;;;17.70;60.30;;;;;;5051545;28;20210;-58
2021/12/15 00:09:48;;;;;;;9.32;8.43;;;17.70;60.40;;;;;;5051558;28;20578;-59
2021/12/15 00:12:14;;;;;;;8.18;7.47;;;17.60;60.30;;;;;;5050885;28;20216;-59
2021/12/15 00:14:41;;;;;;;8.68;7.88;;;17.70;60.40;;;;;;5051351;28;20266;-59
2021/12/15 00:17:06;;;;;;;8.38;7.65;;;17.60;60.40;;;;;;5050922;28;20244;-59
2021/12/15 00:19:32;;;;;;;8.57;7.68;;;17.60;60.30;;;;;;5051233;28;20635;-59
2021/12/15 00:21:58;;;;;;;7.85;7.15;;;17.60;61.10;;;;;;5051274;28;20507;-59
2021/12/15 00:24:24;;;;;;;8.80;7.97;;;17.60;60.40;;;;;;5050516;28;20211;-59
2021/12/15 00:26:50;;;;;;;9.45;7.85;;;17.60;60.30;;;;;;5051284;28;20218;-59
2021/12/15 00:29:16;;;;;;;9.10;8.20;;;17.60;60.30;;;;;;5051602;28;20514;-59
2021/12/15 00:31:42;;;;;;;9.45;8.55;;;17.60;60.30;;;;;;5050424;28;20175;-59
2021/12/15 00:34:08;;;;;;;8.80;8.00;;;17.60;60.30;;;;;;5051608;28;20228;-59
2021/12/15 00:36:33;;;;;;;7.95;7.25;;;17.60;60.30;;;;;;5051227;28;20310;-58
2021/12/15 00:38:59;;;;;;;8.25;7.55;;;17.60;60.30;;;;;;5050534;28;20179;-59
2021/12/15 00:41:25;;;;;;;8.55;7.80;;;17.50;60.30;;;;;;5051029;28;20182;-59
2021/12/15 00:43:50;;;;;;;8.82;7.93;;;17.50;60.30;;;;;;5051541;28;20536;-59
2021/12/15 00:46:16;;;;;;;8.98;8.07;;;17.50;60.20;;;;;;5052967;28;20318;-59
2021/12/15 00:48:42;;;;;;;8.70;7.90;;;17.50;60.30;;;;;;5054742;28;20266;-59
2021/12/15 00:51:07;;;;;;;8.40;7.53;;;17.50;60.20;;;;;;5055313;28;20179;-59
2021/12/15 00:53:33;;;;;;;8.13;7.32;;;17.50;60.30;;;;;;5054044;28;20195;-59
2021/12/15 00:55:58;;;;;;;8.73;7.85;;;17.50;60.30;;;;;;5054981;28;20179;-59
2021/12/15 00:58:24;;;;;;;8.88;8.07;;;17.50;61.10;;;;;;5054793;28;20195;-59
2021/12/15 01:00:52;;;;;;;9.23;8.32;;;17.50;60.30;;;;;;5054336;28;20179;-59
2021/12/15 01:03:18;;;;;;;8.93;8.05;;;17.50;60.30;;;;;;5054923;28;20181;-59
2021/12/15 01:05:49;;;;;;;9.52;8.68;;;17.30;60.10;;;;;;5054659;28;20183;-59
2021/12/15 01:08:17;;;;;;;9.27;8.38;;;17.40;60.10;;;;;;5053944;28;20359;-58
2021/12/15 01:11:05;;;;;;;9.55;8.57;;;17.40;60.10;;;;;;5054409;28;20662;-59
2021/12/15 01:21:59;;;;;;;9.75;8.95;;;17.40;60.20;;;;;;5041773;28;20191;-59
2021/12/15 01:24:24;;;;;;;9.13;8.32;;;17.40;60.20;;;;;;5054041;28;20552;-58
2021/12/15 01:26:50;;;;;;;8.40;7.60;;;17.40;60.10;;;;;;5054332;28;20203;-59
2021/12/15 01:29:16;;;;;;;8.80;8.00;;;17.40;60.10;;;;;;5053505;28;20183;-58
2021/12/15 01:31:41;;;;;;;9.13;8.30;;;17.40;60.20;;;;;;5054169;28;20175;-59
2021/12/15 01:34:07;;;;;;;9.63;8.73;;;17.40;60.10;;;;;;5054450;28;20656;-58
2021/12/15 01:36:35;;;;;;;9.20;8.32;;;17.30;60.10;;;;;;5053277;28;20175;-59
2021/12/15 01:39:01;;;;;;;9.00;8.18;;;17.30;60.10;;;;;;5054318;28;20199;-58
2021/12/15 01:41:26;;;;;;;8.98;8.13;;;17.30;60.10;;;;;;5053205;28;20207;-58
2021/12/15 01:46:56;;;;;;;9.20;8.30;;;17.30;60.00;;;;;;5053664;28;20258;-58
2021/12/15 01:49:27;;;;;;;9.20;8.43;;;17.30;60.00;;;;;;5052964;28;20231;-58
2021/12/15 01:51:53;;;;;;;9.65;8.75;;;17.30;60.10;;;;;;5053952;28;20182;-58
2021/12/15 01:54:20;;;;;;;8.98;8.18;;;17.30;60.00;;;;;;5053576;28;20257;-59
2021/12/15 01:56:45;;;;;;;9.63;8.73;;;17.30;60.10;;;;;;5052891;28;20172;-59
2021/12/15 01:59:11;;;;;;;9.43;8.45;;;17.30;60.10;;;;;;5053842;28;20198;-59
2021/12/15 02:01:39;;;;;;;9.68;8.73;;;17.30;60.10;;;;;;5052282;28;20179;-59
2021/12/15 02:04:05;;;;;;;8.68;7.88;;;17.30;60.10;;;;;;5053035;28;20178;-59
2021/12/15 02:06:31;;;;;;;9.32;8.43;;;17.30;60.00;;;;;;5053088;28;20215;-58
2021/12/15 02:08:56;;;;;;;9.23;8.43;;;17.30;60.10;;;;;;5053647;28;20591;-58
2021/12/15 02:11:22;;;;;;;9.88;8.95;;;17.30;60.10;;;;;;5052880;28;20245;-58
2021/12/15 02:13:47;;;;;;;8.70;7.90;;;17.20;60.00;;;;;;5054074;28;20182;-59
2021/12/15 02:16:13;;;;;;;9.30;8.50;;;17.20;60.10;;;;;;5053612;28;20171;-60
2021/12/15 02:18:43;;;;;;;9.57;8.68;;;17.20;60.00;;;;;;5052424;28;20171;-59
2021/12/15 02:21:17;;;;;;;9.90;8.90;;;17.20;60.00;;;;;;5053347;28;20642;-59
2021/12/15 02:23:47;;;;;;;9.70;8.80;;;17.20;60.00;;;;;;5052231;28;20175;-59
2021/12/15 02:26:22;;;;;;;10.32;9.32;;;17.20;60.00;;;;;;5053216;28;20183;-59
2021/12/15 02:28:55;;;;;;;9.05;8.23;;;17.20;60.00;;;;;;5053134;28;20641;-59
2021/12/15 02:31:37;;;;;;;9.48;8.68;;;17.20;60.00;;;;;;5052294;28;20179;-59
2021/12/15 02:34:31;;;;;;;9.70;8.80;;;17.20;60.00;;;;;;5053319;28;20178;-59
2021/12/15 02:39:37;;;;;;;8.63;7.82;;;17.20;60.10;;;;;;5052434;28;20221;-60
2021/12/15 02:42:03;;;;;;;9.93;8.95;;;17.10;60.00;;;;;;5052857;28;20577;-59
2021/12/15 02:44:28;;;;;;;9.60;8.80;;;17.20;60.10;;;;;;5052762;28;20262;-58
2021/12/15 02:46:54;;;;;;;9.45;8.55;;;17.10;60.00;;;;;;5051901;28;20322;-58
2021/12/15 02:49:21;;;;;;;8.95;8.15;;;17.20;60.00;;;;;;5052661;28;20201;-58
2021/12/15 02:51:48;;;;;;;9.63;8.73;;;17.10;60.00;;;;;;5052199;28;20175;-59
2021/12/15 02:54:14;;;;;;;9.43;8.65;;;17.10;60.00;;;;;;5052703;28;20175;-59
2021/12/15 02:56:40;;;;;;;9.40;8.60;;;17.10;60.00;;;;;;5052184;28;20191;-59
2021/12/15 02:59:11;;;;;;;9.40;8.50;;;17.10;60.00;;;;;;5051969;28;20229;-59
2021/12/15 03:02:09;;;;;;;9.40;8.45;;;17.10;60.00;;;;;;5052390;28;20214;-59
2021/12/15 03:04:43;;;;;;;9.80;8.90;;;17.10;60.00;;;;;;5052167;28;20179;-58
2021/12/15 03:07:28;;;;;;;9.32;8.52;;;17.10;60.00;;;;;;5051286;28;20203;-58
2021/12/15 03:15:30;;;;;;;9.00;8.20;;;17.10;60.00;;;;;;5051902;28;20224;-59
2021/12/15 03:18:05;;;;;;;9.95;9.05;;;17.10;60.00;;;;;;5052460;28;20178;-59
2021/12/15 03:20:36;;;;;;;9.90;8.90;;;17.10;60.00;;;;;;5051437;28;20186;-60
2021/12/15 03:23:04;;;;;;;9.40;8.50;;;17.10;60.00;;;;;;5052388;28;20175;-58
2021/12/15 03:25:31;;;;;;;9.25;8.35;;;17.10;60.00;;;;;;5051950;28;20175;-58
2021/12/15 03:33:54;;;;;;;9.30;8.50;;;17.00;59.90;;;;;;5051910;28;20233;-59
2021/12/15 03:36:36;;;;;;;9.63;8.70;;;17.00;60.70;;;;;;5050929;28;20274;-59
2021/12/15 03:39:04;;;;;;;9.27;8.48;;;17.00;59.90;;;;;;5052253;28;20542;-60
2021/12/15 03:41:30;;;;;;;9.23;8.43;;;17.00;59.90;;;;;;5051075;28;20167;-60
2021/12/15 03:43:55;;;;;;;9.57;8.75;;;17.00;59.90;;;;;;5052024;28;20171;-59
2021/12/15 03:46:21;;;;;;;9.55;8.68;;;17.00;59.90;;;;;;5051405;28;20215;-59
2021/12/15 03:48:46;;;;;;;9.48;8.68;;;17.00;59.90;;;;;;5051244;28;20179;-59
2021/12/15 03:51:13;;;;;;;9.55;8.65;;;17.00;59.90;;;;;;5052038;28;20174;-59
2021/12/15 03:53:39;;;;;;;9.85;8.95;;;17.00;59.90;;;;;;5051747;28;20183;-60
2021/12/15 03:56:06;;;;;;;9.52;8.63;;;17.00;59.90;;;;;;5051221;28;20547;-60
2021/12/15 03:58:32;;;;;;;9.00;8.25;;;16.90;59.90;;;;;;5051485;28;20202;-60
2021/12/15 04:01:00;;;;;;;9.18;8.38;;;17.00;59.90;;;;;;5051853;28;20206;-60
2021/12/15 04:03:34;;;;;;;8.85;8.05;;;16.90;59.90;;;;;;5050689;28;20274;-59
2021/12/15 04:06:02;;;;;;;8.30;7.60;;;17.00;59.90;;;;;;5052015;28;20192;-59
2021/12/15 04:08:28;;;;;;;8.48;7.78;;;16.90;59.90;;;;;;5051506;28;20214;-59
2021/12/15 04:10:54;;;;;;;9.80;8.90;;;16.90;59.90;;;;;;5051011;28;20174;-58
2021/12/15 04:13:20;;;;;;;9.80;8.90;;;16.90;59.90;;;;;;5051312;28;20189;-60
2021/12/15 04:15:55;;;;;;;8.75;7.95;;;16.90;59.90;;;;;;5051766;28;20171;-60
2021/12/15 04:18:21;;;;;;;10.13;9.13;;;16.90;59.90;;;;;;5050756;28;20187;-61
2021/12/15 04:20:47;;;;;;;9.43;8.57;;;16.90;59.90;;;;;;5055320;28;20178;-59
2021/12/15 04:23:13;;;;;;;9.82;8.93;;;16.90;59.90;;;;;;5055184;28;20193;-59
2021/12/15 04:25:40;;;;;;;9.65;8.75;;;16.90;59.90;;;;;;5055137;28;20786;-59
2021/12/15 04:28:07;;;;;;;9.38;8.52;;;16.90;59.90;;;;;;5055285;28;20677;-59
2021/12/15 04:30:34;;;;;;;8.57;7.88;;;16.90;59.90;;;;;;5054205;28;20171;-58
2021/12/15 04:33:07;;;;;;;8.90;8.10;;;16.90;59.90;;;;;;5055537;28;20257;-59
2021/12/15 04:35:33;;;;;;;9.32;8.45;;;16.90;59.90;;;;;;5055280;28;20174;-60
2021/12/15 04:37:59;;;;;;;9.20;8.40;;;16.90;59.90;;;;;;5054704;28;20541;-59
2021/12/15 04:40:24;;;;;;;9.73;8.82;;;16.90;59.90;;;;;;5055068;28;20638;-59
2021/12/15 04:42:50;;;;;;;9.35;8.45;;;16.90;59.90;;;;;;5055227;28;20175;-59
2021/12/15 04:45:17;;;;;;;9.30;8.43;;;16.80;59.80;;;;;;5054573;28;20626;-58
2021/12/15 04:47:43;;;;;;;9.82;8.82;;;16.80;59.90;;;;;;5054926;28;20215;-59
2021/12/15 04:50:08;;;;;;;9.57;8.25;;;16.90;59.90;;;;;;5055231;28;20539;-59
2021/12/15 04:52:34;;;;;;;9.80;8.32;;;16.80;59.80;;;;;;5054250;28;20178;-59
2021/12/15 04:55:00;;;;;;;8.73;7.93;;;16.80;59.90;;;;;;5055054;28;20175;-59
2021/12/15 04:57:25;;;;;;;8.98;8.18;;;16.80;59.80;;;;;;5054627;28;20186;-60
2021/12/15 04:59:51;;;;;;;9.20;8.40;;;16.80;59.80;;;;;;5054397;28;20189;-59
2021/12/15 05:02:17;;;;;;;8.80;8.10;;;16.80;59.80;;;;;;5055034;28;20183;-59
2021/12/15 05:04:42;;;;;;;8.50;7.65;;;16.80;59.80;;;;;;5054759;28;20626;-59
2021/12/15 05:07:08;;;;;;;9.52;8.60;;;16.80;59.80;;;;;;5054112;28;20669;-59
2021/12/15 05:09:33;;;;;;;9.30;8.50;;;16.80;59.80;;;;;;5054518;28;20171;-60
2021/12/15 05:11:59;;;;;;;9.43;8.52;;;16.80;59.80;;;;;;5054656;28;20182;-58
2021/12/15 05:14:24;;;;;;;8.68;7.90;;;16.80;59.90;;;;;;5053461;28;20174;-59
2021/12/15 05:16:51;;;;;;;8.57;7.88;;;16.80;59.90;;;;;;5054859;28;20172;-59
2021/12/15 05:19:17;;;;;;;8.88;7.93;;;16.80;59.90;;;;;;5054516;28;20190;-60
2021/12/15 05:21:42;;;;;;;9.70;8.80;;;16.80;59.80;;;;;;5053464;28;20175;-59
2021/12/15 05:24:14;;;;;;;9.02;8.20;;;16.80;59.80;;;;;;5054570;28;20253;-59
2021/12/15 05:26:40;;;;;;;9.13;8.32;;;16.70;59.80;;;;;;5053331;28;20267;-59
2021/12/15 05:29:06;;;;;;;9.00;8.20;;;16.80;59.80;;;;;;5054527;28;20190;-59
2021/12/15 05:31:31;;;;;;;9.40;8.50;;;16.80;59.90;;;;;;5053332;28;20626;-59
2021/12/15 05:33:57;;;;;;;9.27;8.38;;;16.70;59.80;;;;;;5053427;28;20744;-60
2021/12/15 05:36:22;;;;;;;10.25;9.25;;;16.70;59.80;;;;;;5053874;28;20258;-60
2021/12/15 05:38:48;;;;;;;9.63;8.80;;;16.70;59.80;;;;;;5053983;28;20635;-60
2021/12/15 05:41:15;;;;;;;8.85;8.07;;;16.70;59.80;;;;;;5053226;28;20185;-60
2021/12/15 05:43:40;;;;;;;9.23;8.38;;;16.70;59.80;;;;;;5054042;28;20175;-60
2021/12/15 05:46:06;;;;;;;9.45;8.55;;;16.70;59.90;;;;;;5053954;28;20237;-59
2021/12/15 05:48:31;;;;;;;9.25;8.35;;;16.70;59.80;;;;;;5053120;28;20203;-60
2021/12/15 05:50:57;;;;;;;8.70;7.90;;;16.70;59.80;;;;;;5053961;28;20581;-58
2021/12/15 05:53:22;;;;;;;8.60;7.80;;;16.70;59.80;;;;;;5053608;28;20203;-60
2021/12/15 05:55:51;;;;;;;9.20;8.43;;;16.70;59.80;;;;;;5053118;28;20245;-60
2021/12/15 05:58:16;;;;;;;9.70;8.88;;;16.70;59.80;;;;;;5054126;28;20241;-59
2021/12/15 06:00:43;;;;;;;8.40;7.68;;;16.70;59.80;;;;;;5053742;28;20630;-60
2021/12/15 06:03:08;;;;;;;8.48;7.78;;;16.70;59.80;;;;;;5053131;28;20182;-60
2021/12/15 06:05:34;;;;;;;9.27;8.43;;;16.70;59.90;;;;;;5053603;28;20551;-59
2021/12/15 06:07:59;;;;;;;9.23;8.43;;;16.70;59.90;;;;;;5053648;28;20214;-59
2021/12/15 06:10:27;;;;;;;9.27;8.48;;;16.70;59.80;;;;;;5052579;28;20211;-60
2021/12/15 06:12:55;;;;;;;9.50;8.65;;;16.60;59.80;;;;;;5053855;28;20183;-60
2021/12/15 06:15:23;;;;;;;9.23;8.43;;;16.70;59.80;;;;;;5053488;28;20175;-60
2021/12/15 06:18:00;;;;;;;9.48;8.57;;;16.70;59.80;;;;;;5052940;28;20179;-60
2021/12/15 06:20:26;;;;;;;9.50;8.70;;;16.60;59.80;;;;;;5053320;28;20175;-60
2021/12/15 06:22:54;;;;;;;9.13;8.23;;;16.70;59.90;;;;;;5052584;28;20228;-59
2021/12/15 06:25:19;;;;;;;9.10;8.20;;;16.70;59.90;;;;;;5053240;28;20183;-59
2021/12/15 06:27:45;;;;;;;9.13;8.25;;;16.60;59.80;;;;;;5053175;28;20222;-60
2021/12/15 06:30:11;;;;;;;8.82;8.02;;;16.60;59.80;;;;;;5052714;28;20217;-59
2021/12/15 06:32:36;;;;;;;9.10;8.30;;;16.60;59.80;;;;;;5052977;28;20228;-59
2021/12/15 06:35:03;;;;;;;9.15;8.35;;;16.60;59.90;;;;;;5052644;28;20618;-60
2021/12/15 06:37:28;;;;;;;10.23;9.23;;;16.60;59.80;;;;;;5052098;28;20186;-60
2021/12/15 06:39:54;;;;;;;8.70;7.95;;;16.60;59.90;;;;;;5052875;28;20175;-60
2021/12/15 06:42:19;;;;;;;9.13;8.32;;;16.60;59.90;;;;;;5052727;28;20171;-59
2021/12/15 06:44:46;;;;;;;8.65;7.93;;;16.60;59.80;;;;;;5052259;28;20512;-59
2021/12/15 06:58:11;;;;;;;9.23;8.32;;;16.60;59.90;;;;;;5052110;28;20221;-60
2021/12/15 07:00:45;;;;;;;9.18;8.38;;;16.60;59.90;;;;;;5052372;28;20254;-60
2021/12/15 07:03:11;;;;;;;9.85;8.85;;;16.60;59.90;;;;;;5052697;28;20176;-59
2021/12/15 07:05:36;;;;;;;9.07;8.27;;;16.60;59.80;;;;;;5051778;28;20633;-59
2021/12/15 07:08:03;;;;;;;9.85;8.98;;;16.60;59.80;;;;;;5052571;28;20672;-59
2021/12/15 07:10:30;;;;;;;9.57;8.77;;;16.50;59.80;;;;;;5052219;28;20241;-59
2021/12/15 07:12:56;;;;;;;9.13;8.32;;;16.60;59.90;;;;;;5051860;28;20175;-59
2021/12/15 07:15:22;;;;;;;8.70;7.90;;;16.60;59.90;;;;;;5052119;28;20228;-59
2021/12/15 07:17:50;;;;;;;8.82;8.02;;;16.50;59.80;;;;;;5052712;28;20199;-59
2021/12/15 07:20:34;;;;;;;8.95;8.15;;;16.60;59.90;;;;;;5051599;28;20180;-58
2021/12/15 07:23:00;;;;;;;9.68;8.77;;;16.50;59.90;;;;;;5052488;28;20179;-58
2021/12/15 07:25:26;;;;;;;9.52;8.73;;;16.50;59.90;;;;;;5051760;28;20175;-58
2021/12/15 07:27:52;;;;;;;9.02;8.23;;;16.50;59.90;;;;;;5051438;28;20214;-58
2021/12/15 07:30:17;;;;;;;9.23;8.32;;;16.50;59.90;;;;;;5052318;28;20277;-57
2021/12/15 07:32:43;;;;;;;8.43;7.68;;;16.50;59.80;;;;;;5051889;28;20175;-58
2021/12/15 07:35:09;;;;;;;8.88;8.07;;;16.60;59.90;;;;;;5051372;28;20672;-58
2021/12/15 07:37:34;;;;;;;8.55;7.75;;;16.60;59.90;;;;;;5051781;28;20270;-59
2021/12/15 07:40:00;;;;;;;8.90;8.10;;;16.70;60.10;;;;;;5052036;28;20630;-66
2021/12/15 07:42:35;;;;;;;8.27;7.47;;;16.80;60.00;;;;;;5051184;28;20207;-65
2021/12/15 07:45:01;;;;;;;8.10;7.30;;;16.90;59.80;;;;;;5051980;28;20175;-65
2021/12/15 07:47:26;;;;;;;8.00;7.28;;;17.10;59.60;;;;;;5050456;28;20254;-65
2021/12/15 07:49:52;;;;;;;7.13;6.47;;;17.30;59.20;;;;;;5051862;28;20575;-64
2021/12/15 07:52:21;;;;;;;7.38;6.68;;;17.50;59.00;;;;;;5051856;28;20210;-63
2021/12/15 07:54:46;;;;;;;8.20;7.40;;;17.70;59.00;;;;;;5050855;28;20167;-64
2021/12/15 07:57:17;;;;;;;7.20;6.50;;;17.90;58.80;;;;;;5051851;28;20517;-64
2021/12/15 07:59:42;;;;;;;9.80;6.90;;;18.10;58.40;;;;;;5051690;28;20186;-64
2021/12/15 08:02:08;;;;;;;6.88;6.28;;;18.30;58.20;;;;;;5051018;28;20175;-64
2021/12/15 08:04:33;;;;;;;8.35;6.03;;;18.50;57.80;;;;;;5051566;28;20629;-65
2021/12/15 08:06:59;;;;;;;7.28;6.53;;;18.60;57.60;;;;;;5051720;28;20217;-66
2021/12/15 08:09:24;;;;;;;7.78;5.97;;;18.70;57.30;;;;;;5050922;28;20258;-62
2021/12/15 08:11:50;;;;;;;8.48;6.95;;;18.70;57.30;;;;;;5051780;28;20171;-61
2021/12/15 08:14:16;;;;;;;6.53;5.60;;;18.80;57.70;;;;;;5051552;28;20196;-61
2021/12/15 08:16:42;;;;;;;8.20;6.18;;;18.70;57.90;;;;;;5050704;28;20171;-61
2021/12/15 08:19:08;;;;;;;7.72;6.10;;;18.70;58.10;;;;;;5051608;28;20536;-62
2021/12/15 08:21:33;;;;;;;7.53;6.05;;;18.70;58.20;;;;;;5051209;28;20175;-62
2021/12/15 08:23:59;;;;;;;7.10;6.40;;;18.70;58.20;;;;;;5050952;28;20186;-62
2021/12/15 08:26:24;;;;;;;8.32;6.45;;;18.70;58.30;;;;;;5051324;28;20201;-61
2021/12/15 08:28:51;;;;;;;7.20;5.82;;;18.70;58.30;;;;;;5051595;28;20297;-61
2021/12/15 08:31:17;;;;;;;6.80;5.90;;;18.80;58.40;;;;;;5050863;28;20171;-62
2021/12/15 08:33:42;;;;;;;7.38;6.53;;;18.70;58.40;;;;;;5051202;28;20163;-62
2021/12/15 08:36:09;;;;;;;7.15;6.25;;;18.70;58.50;;;;;;5051340;28;20175;-63
2021/12/15 08:38:36;;;;;;;8.85;5.85;;;18.60;58.70;;;;;;5050322;28;20237;-62
2021/12/15 08:41:13;;;;;;;6.75;6.05;;;18.50;58.90;;;;;;5051544;28;20226;-62
2021/12/15 08:43:39;;;;;;;6.43;5.82;;;18.50;59.10;;;;;;5050370;28;20189;-63
2021/12/15 08:46:07;;;;;;;6.28;5.68;;;18.40;59.20;;;;;;5051251;28;20239;-62
2021/12/15 08:48:34;;;;;;;7.32;5.97;;;18.40;59.20;;;;;;5050906;28;20342;-62
2021/12/15 08:50:59;;;;;;;7.47;6.78;;;18.40;59.20;;;;;;5050829;28;20187;-62
2021/12/15 08:53:25;;;;;;;7.38;6.15;;;18.40;59.20;;;;;;5051073;28;20176;-61
2021/12/15 08:55:50;;;;;;;6.55;5.93;;;18.40;59.50;;;;;;5051239;28;20175;-62
2021/12/15 08:58:17;;;;;;;6.93;6.22;;;18.50;59.20;;;;;;5050320;28;20175;-61
2021/12/15 09:00:44;;;;;;;6.60;5.97;;;18.50;59.20;;;;;;5050840;28;20254;-62
2021/12/15 09:03:13;;;;;;;7.35;5.95;;;18.40;59.20;;;;;;5051064;28;20202;-62
2021/12/15 09:05:38;;;;;;;7.22;6.55;;;18.40;59.50;;;;;;5049993;28;20182;-62
2021/12/15 09:08:04;;;;;;;6.93;6.32;;;18.30;59.50;;;;;;5054791;28;20260;-61
2021/12/15 09:10:30;;;;;;;7.03;6.32;;;18.20;59.70;;;;;;5054446;28;20634;-61
2021/12/15 09:12:56;;;;;;;7.05;6.35;;;18.10;59.80;;;;;;5054370;28;20205;-61
2021/12/15 09:15:22;;;;;;;7.28;6.57;;;18.10;59.90;;;;;;5054312;28;20171;-61
2021/12/15 09:17:47;;;;;;;6.78;6.05;;;18.10;59.90;;;;;;5054521;28;20197;-62
2021/12/15 09:20:14;;;;;;;6.88;5.95;;;18.10;59.90;;;;;;5054149;28;20183;-61
2021/12/15 09:22:40;;;;;;;6.85;6.25;;;18.20;59.90;;;;;;5054349;28;20190;-61
2021/12/15 09:25:06;;;;;;;6.90;6.30;;;18.20;59.80;;;;;;5054540;28;20550;-61
2021/12/15 09:27:32;;;;;;;7.13;6.38;;;18.20;59.80;;;;;;5053286;28;20207;-61
2021/12/15 09:29:58;;;;;;;7.00;6.32;;;18.20;59.80;;;;;;5054204;28;20174;-61
2021/12/15 09:32:23;;;;;;;8.07;7.22;;;18.10;59.90;;;;;;5053961;28;20179;-61
2021/12/15 09:34:49;;;;;;;7.65;6.70;;;18.10;60.00;;;;;;5053356;28;20245;-61
2021/12/15 09:37:14;;;;;;;7.40;6.70;;;18.00;60.10;;;;;;5054375;28;20247;-61
2021/12/15 09:39:40;;;;;;;7.53;6.80;;;18.00;60.20;;;;;;5053811;28;20175;-62
2021/12/15 09:42:05;;;;;;;7.40;6.70;;;18.00;60.40;;;;;;5053645;28;20229;-61
2021/12/15 09:44:31;;;;;;;7.68;6.80;;;17.90;60.30;;;;;;5053863;28;20352;-61
2021/12/15 09:56:25;;;;;;;7.97;6.85;;;17.90;60.50;;;;;;5031696;28;20175;-60
2021/12/15 10:04:19;;;;;;;7.60;6.78;;;17.90;60.40;;;;;;5053652;28;20182;-62
2021/12/15 10:06:49;;;;;;;8.07;7.18;;;17.90;60.60;;;;;;5053232;28;20210;-61
2021/12/15 10:17:42;;;;;;;8.20;6.88;;;17.90;60.90;;;;;;5052856;28;20221;-60
2021/12/15 10:20:13;;;;;;;8.60;6.82;;;17.90;60.70;;;;;;5053635;28;20225;-61
2021/12/15 10:22:44;;;;;;;7.47;6.68;;;17.90;60.60;;;;;;5051150;28;20216;-61
2021/12/15 10:25:34;;;;;;;9.77;8.40;;;17.90;60.60;;;;;;5053562;28;20179;-61
2021/12/15 10:28:03;;;;;;;10.02;8.18;;;17.90;60.50;;;;;;5050410;28;20253;-61
2021/12/15 10:30:31;;;;;;;8.85;7.65;;;17.80;60.50;;;;;;5052201;28;20246;-61
2021/12/15 10:32:59;;;;;;;10.45;7.90;;;17.80;60.70;;;;;;5053045;28;20598;-64
2021/12/15 10:35:28;;;;;;;10.15;8.63;;;17.70;60.80;;;;;;5052907;28;20179;-65
2021/12/15 10:38:27;;;;;;;9.90;8.00;;;17.80;61.00;;;;;;5052474;28;20175;-66
2021/12/15 10:41:03;;;;;;;9.27;7.70;;;17.90;60.90;;;;;;5053042;28;20244;-65
2021/12/15 10:43:35;;;;;;;10.45;7.63;;;17.90;60.80;;;;;;5052332;28;20231;-63
2021/12/15 10:46:10;;;;;;;11.10;8.10;;;18.00;60.70;;;;;;5052888;28;20227;-64
2021/12/15 10:48:43;;;;;;;8.48;7.68;;;18.00;60.70;;;;;;5052597;28;20225;-62
2021/12/15 10:51:33;;;;;;;8.98;7.95;;;18.00;60.70;;;;;;5052109;28;20647;-62
2021/12/15 10:54:08;;;;;;;8.32;7.38;;;17.90;60.70;;;;;;5052982;28;20218;-63
2021/12/15 10:56:37;;;;;;;8.50;7.63;;;17.90;60.80;;;;;;5052462;28;20280;-64
2021/12/15 10:59:06;;;;;;;9.55;8.65;;;17.90;61.10;;;;;;5051738;28;20198;-64
2021/12/15 11:01:41;;;;;;;10.30;7.88;;;17.90;61.20;;;;;;5051822;28;20182;-65
2021/12/15 11:04:33;;;;;;;8.45;7.57;;;17.90;61.20;;;;;;5051601;28;20218;-64
2021/12/15 11:07:18;;;;;;;9.10;7.47;;;17.90;61.20;;;;;;5052457;28;20226;-64
2021/12/15 11:10:02;;;;;;;7.88;7.07;;;18.00;61.20;;;;;;5052556;28;20633;-63
2021/12/15 11:12:31;;;;;;;8.20;7.07;;;18.00;61.10;;;;;;5051433;28;20179;-63
2021/12/15 11:15:10;;;;;;;9.20;7.43;;;18.00;61.00;;;;;;5052508;28;20171;-64
2021/12/15 11:17:41;;;;;;;8.93;7.35;;;18.00;61.00;;;;;;5052204;28;20175;-64
2021/12/15 11:20:18;;;;;;;7.85;7.07;;;18.00;61.20;;;;;;5051822;28;20213;-66
2021/12/15 11:22:47;;;;;;;9.00;8.00;;;18.00;60.90;;;;;;5052022;28;20250;-64
2021/12/15 11:25:18;;;;;;;8.80;7.57;;;18.00;60.90;;;;;;5051795;28;20584;-64
2021/12/15 11:27:51;;;;;;;8.73;7.65;;;17.90;61.10;;;;;;5051789;28;20669;-64
2021/12/15 11:30:21;;;;;;;13.18;9.13;;;17.90;61.30;;;;;;5051469;28;20211;-66
2021/12/15 11:32:49;;;;;;;8.70;7.82;;;17.90;61.10;;;;;;5051351;28;20205;-66
2021/12/15 11:35:21;;;;;;;9.32;8.32;;;17.90;61.10;;;;;;5051895;28;20270;-68
2021/12/15 11:37:50;;;;;;;9.43;7.85;;;18.00;61.00;;;;;;5051899;28;20206;-67
2021/12/15 11:40:24;;;;;;;9.27;7.55;;;18.00;60.90;;;;;;5051036;28;20648;-67
2021/12/15 11:42:56;;;;;;;9.05;8.13;;;18.00;60.90;;;;;;5052155;28;20190;-68
2021/12/15 11:45:22;;;;;;;10.02;7.80;;;18.00;60.70;;;;;;5051410;28;20167;-65
2021/12/15 11:47:47;;;;;;;9.15;8.25;;;18.00;60.70;;;;;;5051207;28;20253;-67
2021/12/15 11:50:19;;;;;;;9.68;7.88;;;18.00;60.70;;;;;;5051697;28;20672;-65
2021/12/15 11:52:47;;;;;;;8.07;7.38;;;18.00;60.60;;;;;;5051853;28;20190;-67
2021/12/15 11:55:24;;;;;;;8.75;7.85;;;18.00;60.70;;;;;;5051231;28;20186;-63
2021/12/15 11:57:49;;;;;;;8.98;7.70;;;18.00;61.00;;;;;;5051574;28;20270;-68
2021/12/15 12:00:17;;;;;;;9.05;8.15;;;18.00;61.20;;;;;;5051609;28;20254;-68
2021/12/15 12:02:47;;;;;;;8.95;7.68;;;18.00;61.00;;;;;;5050729;28;20185;-66
2021/12/15 12:05:30;;;;;;;10.93;8.43;;;17.90;61.20;;;;;;5051839;28;20293;-67
2021/12/15 12:07:58;;;;;;;8.40;7.60;;;17.90;61.20;;;;;;5050787;28;20708;-67
2021/12/15 12:10:32;;;;;;;12.65;8.00;;;17.90;61.20;;;;;;5051337;28;20537;-65
2021/12/15 12:13:05;;;;;;;8.57;7.60;;;17.90;61.20;;;;;;5051654;28;20217;-67
2021/12/15 12:15:41;;;;;;;8.48;7.65;;;17.90;61.30;;;;;;5050729;28;20186;-66
2021/12/15 12:18:11;;;;;;;9.35;8.43;;;17.80;61.50;;;;;;5051641;28;20545;-64
2021/12/15 12:21:04;;;;;;;8.93;8.02;;;17.80;61.50;;;;;;5051390;28;20175;-65
2021/12/15 12:23:30;;;;;;;9.27;8.25;;;17.80;61.50;;;;;;5049597;28;20179;-64
2021/12/15 12:26:00;;;;;;;10.02;7.90;;;17.70;61.70;;;;;;5060141;28;20536;-63
2021/12/15 12:28:28;;;;;;;11.57;8.18;;;17.60;61.80;;;;;;5064674;28;20214;-64
2021/12/15 12:31:18;;;;;;;10.63;7.47;;;17.60;61.90;;;;;;5071304;28;20182;-64
2021/12/15 12:33:44;;;;;;;8.63;7.82;;;17.60;62.00;;;;;;5033588;28;20643;-65
2021/12/15 12:36:15;;;;;;;9.73;8.20;;;17.50;62.10;;;;;;5042017;28;20179;-67
2021/12/15 12:38:46;;;;;;;10.52;8.05;;;17.50;62.10;;;;;;5050966;28;20211;-67
2021/12/15 12:41:14;;;;;;;8.55;7.75;;;17.50;62.20;;;;;;5054352;28;20175;-66
2021/12/15 12:43:54;;;;;;;9.70;8.65;;;17.50;62.10;;;;;;5054341;28;20175;-65
2021/12/15 12:46:32;;;;;;;8.95;7.50;;;17.50;62.30;;;;;;5055079;28;20265;-66
2021/12/15 13:00:25;;;;;;;8.40;7.50;;;17.60;61.80;;;;;;5055418;28;20304;-66
2021/12/15 13:02:59;;;;;;;9.90;8.13;;;17.60;61.60;;;;;;5054839;28;20171;-66
2021/12/15 13:05:45;;;;;;;8.27;7.53;;;17.50;61.60;;;;;;5054130;28;20231;-65
2021/12/15 13:08:32;;;;;;;8.93;7.63;;;17.50;61.60;;;;;;5054859;28;20213;-65
2021/12/15 13:11:22;;;;;;;8.88;7.68;;;17.50;61.60;;;;;;5054147;28;20642;-65
2021/12/15 13:13:56;;;;;;;8.25;7.32;;;17.50;61.50;;;;;;5055070;28;20179;-64
2021/12/15 13:16:28;;;;;;;10.88;7.65;;;17.50;61.60;;;;;;5054433;28;20182;-64
2021/12/15 13:19:00;;;;;;;8.90;7.40;;;17.50;61.50;;;;;;5054060;28;20201;-65
2021/12/15 13:21:54;;;;;;;8.48;7.68;;;17.50;61.50;;;;;;5054177;28;20206;-65
2021/12/15 13:30:51;;;;;;;9.27;8.38;;;17.50;61.60;;;;;;5054642;28;20657;-64
2021/12/15 13:33:35;;;;;;;8.25;7.45;;;17.50;61.40;;;;;;5053699;28;20220;-65
2021/12/15 13:36:14;;;;;;;8.00;7.25;;;17.20;61.20;;;;;;5054445;28;20191;-65
2021/12/15 13:38:55;;;;;;;8.85;8.05;;;17.50;61.40;;;;;;5054170;28;20250;-66
2021/12/15 13:41:38;;;;;;;8.57;7.72;;;17.50;62.30;;;;;;5053806;28;20646;-65
2021/12/15 13:44:29;;;;;;;8.85;7.97;;;17.40;61.50;;;;;;5054291;28;20171;-65
2021/12/15 13:47:01;;;;;;;8.20;7.50;;;17.40;61.40;;;;;;5050018;28;20669;-65
2021/12/15 13:49:42;;;;;;;7.57;6.88;;;17.40;62.30;;;;;;5053873;28;20262;-65
2021/12/15 13:52:11;;;;;;;7.95;7.28;;;17.40;61.50;;;;;;5053278;28;20685;-65
2021/12/15 13:54:36;;;;;;;8.13;7.40;;;17.40;61.50;;;;;;5052730;28;20171;-66
2021/12/15 13:57:23;;;;;;;8.05;7.35;;;17.40;61.40;;;;;;5054110;28;20236;-65
2021/12/15 14:00:09;;;;;;;7.80;7.10;;;17.40;61.40;;;;;;5053578;28;20237;-65
2021/12/15 14:02:55;;;;;;;7.68;7.07;;;17.40;61.40;;;;;;5053381;28;20179;-65
2021/12/15 14:05:24;;;;;;;7.40;6.65;;;17.40;61.30;;;;;;5053361;28;20179;-65
2021/12/15 14:07:50;;;;;;;7.45;6.40;;;17.40;61.30;;;;;;5052905;28;20306;-65
2021/12/15 14:10:18;;;;;;;8.57;7.22;;;17.40;61.40;;;;;;5053807;28;20179;-64
2021/12/15 14:12:47;;;;;;;7.68;6.97;;;17.40;61.50;;;;;;5053416;28;20583;-65
2021/12/15 14:15:32;;;;;;;8.00;7.20;;;17.40;61.40;;;;;;5052757;28;20211;-64